Time;durP1;ratioP1;P1;durP2;ratioP2;P2;SDS_P1;SDS_P2;PMS_P1;PMS_P2;Temp;Humidity;BMP_temperature;BMP_pressure;BME280_temperature;BME280_humidity;BME280_pressure;Samples;Min_cycle;Max_cycle;Signal;HPM_P1;HPM_P2
2022/06/05 00:01:29;;;;;;;14.18;7.90;;;;;;;15.69;76.90;99630.19;5011802;28;20429;-66
2022/06/05 00:04:21;;;;;;;12.80;7.40;;;;;;;15.32;76.37;99581.31;5011972;28;20085;-67
2022/06/05 00:06:52;;;;;;;14.20;8.45;;;;;;;15.54;76.31;99630.84;5012224;28;20060;-67
2022/06/05 00:09:42;;;;;;;11.00;7.63;;;;;;;15.24;76.09;99573.84;5010757;28;20467;-67
2022/06/05 00:12:18;;;;;;;12.45;7.45;;;;;;;15.55;76.21;99619.50;5012148;28;20529;-66
2022/06/05 00:14:44;;;;;;;10.07;7.13;;;;;;;15.61;76.56;99623.63;5011948;28;20030;-66
2022/06/05 00:17:13;;;;;;;10.48;7.38;;;;;;;15.28;76.01;99558.91;5010930;28;20022;-67
2022/06/05 00:19:42;;;;;;;14.38;8.68;;;;;;;15.26;76.39;99565.94;5012066;28;20026;-67
2022/06/05 00:22:08;;;;;;;14.70;7.70;;;;;;;15.54;76.32;99616.03;5012149;28;20026;-67
2022/06/05 00:24:35;;;;;;;16.00;9.23;;;;;;;15.48;76.55;99611.09;5010821;28;20414;-67
2022/06/05 00:27:05;;;;;;;14.80;8.38;;;;;;;15.42;76.23;99613.97;5012114;28;20022;-67
2022/06/05 00:29:43;;;;;;;13.32;8.20;;;;;;;15.45;76.04;99600.78;5012009;28;20105;-68
2022/06/05 00:32:11;;;;;;;15.38;8.35;;;;;;;15.44;76.52;99598.25;5011907;28;20026;-67
2022/06/05 00:34:37;;;;;;;13.90;7.97;;;;;;;15.45;76.53;99598.19;5010484;28;20026;-67
2022/06/05 00:37:16;;;;;;;13.95;8.52;;;;;;;15.07;76.50;99532.81;5011782;28;20038;-67
2022/06/05 00:40:11;;;;;;;13.55;7.85;;;;;;;15.08;76.32;99526.69;5013639;28;20530;-66
2022/06/05 00:42:37;;;;;;;14.32;7.50;;;;;;;15.32;76.95;99584.81;5015557;28;20064;-67
2022/06/05 00:45:09;;;;;;;15.27;8.20;;;;;;;15.03;76.54;99536.47;5001235;28;20071;-67
2022/06/05 00:47:35;;;;;;;11.95;8.15;;;;;;;15.29;76.15;99584.06;5015588;28;20037;-66
2022/06/05 00:50:16;;;;;;;14.00;8.05;;;;;;;15.34;76.29;99590.78;5015677;28;20089;-66
2022/06/05 00:52:45;;;;;;;14.45;8.20;;;;;;;15.00;76.56;99534.00;5015568;28;20026;-66
2022/06/05 00:55:12;;;;;;;16.15;8.45;;;;;;;15.32;77.41;99584.81;5011769;28;20025;-66
2022/06/05 00:57:39;;;;;;;14.35;8.32;;;;;;;15.28;77.00;99578.00;5014136;28;20026;-66
2022/06/05 01:00:27;;;;;;;15.25;8.18;;;;;;;15.33;76.22;99585.63;5014843;28;20032;-66
2022/06/05 01:02:55;;;;;;;13.68;8.07;;;;;;;15.22;76.67;99561.75;5014814;28;20042;-66
2022/06/05 01:05:22;;;;;;;16.55;8.95;;;;;;;15.24;77.05;99573.00;5010862;28;20530;-66
2022/06/05 01:07:48;;;;;;;11.77;8.07;;;;;;;15.27;77.16;99568.47;5014781;28;20037;-66
2022/06/05 01:10:16;;;;;;;13.50;8.20;;;;;;;14.91;77.00;99514.38;5014575;28;20383;-67
2022/06/05 01:13:04;;;;;;;14.18;8.48;;;;;;;15.20;77.75;99559.22;5014819;28;20026;-67
2022/06/05 01:15:33;;;;;;;15.82;8.38;;;;;;;15.25;77.19;99570.31;5014745;28;20040;-68
2022/06/05 01:18:19;;;;;;;17.73;8.93;;;;;;;15.24;77.02;99563.41;5014555;28;20025;-67
2022/06/05 01:21:07;;;;;;;13.18;8.85;;;;;;;15.15;77.07;99549.00;5014301;28;20112;-66
2022/06/05 01:24:06;;;;;;;17.75;9.52;;;;;;;15.26;77.73;99561.56;5014606;28;20030;-66
2022/06/05 01:26:49;;;;;;;19.85;8.32;;;;;;;15.23;77.16;99547.81;5010683;28;20037;-67
2022/06/05 01:29:35;;;;;;;17.90;9.63;;;;;;;15.29;77.87;99577.13;5014396;28;20026;-67
2022/06/05 01:32:07;;;;;;;14.95;8.15;;;;;;;15.29;77.43;99561.44;5014271;28;20096;-67
2022/06/05 01:34:44;;;;;;;20.83;9.07;;;;;;;15.27;77.37;99560.66;5014179;28;20117;-67
2022/06/05 01:37:35;;;;;;;16.80;9.05;;;;;;;15.31;77.19;99562.22;5013020;28;20026;-67
2022/06/05 01:40:13;;;;;;;15.27;9.02;;;;;;;14.89;77.79;99510.97;5013489;28;20033;-67
2022/06/05 01:42:43;;;;;;;18.10;8.95;;;;;;;15.15;77.92;99542.94;4994596;28;20452;-67
2022/06/05 01:45:22;;;;;;;17.27;9.02;;;;;;;14.92;77.59;99505.63;5010921;28;20543;-67
2022/06/05 01:47:53;;;;;;;18.45;8.73;;;;;;;15.26;77.77;99560.72;5013949;28;20029;-68
2022/06/05 01:50:52;;;;;;;14.50;9.15;;;;;;;15.07;77.96;99526.75;5012505;28;20483;-67
2022/06/05 01:53:29;;;;;;;19.75;9.88;;;;;;;15.27;77.77;99549.38;5012765;28;20064;-67
2022/06/05 01:56:13;;;;;;;16.60;9.07;;;;;;;15.28;77.75;99549.31;5002704;28;20554;-67
2022/06/05 01:58:43;;;;;;;17.50;9.10;;;;;;;15.32;77.71;99565.66;5014082;28;20033;-67
2022/06/05 02:01:19;;;;;;;24.13;9.60;;;;;;;15.27;77.67;99541.56;5013851;28;20029;-67
2022/06/05 02:04:00;;;;;;;21.60;8.48;;;;;;;14.94;77.83;99484.72;5013894;28;20053;-67
2022/06/05 02:06:33;;;;;;;14.95;8.82;;;;;;;15.31;77.60;99540.50;5013914;28;20030;-67
2022/06/05 02:09:07;;;;;;;18.02;9.45;;;;;;;14.99;78.12;99491.44;5013819;28;20122;-68
2022/06/05 02:11:33;;;;;;;14.68;8.82;;;;;;;15.05;77.44;99505.09;5013684;28;20022;-65
2022/06/05 02:14:10;;;;;;;19.92;9.30;;;;;;;15.34;78.03;99543.81;5013842;28;20057;-66
2022/06/05 02:16:37;;;;;;;14.85;8.07;;;;;;;15.07;77.94;99487.63;5013582;28;20109;-66
2022/06/05 02:19:07;;;;;;;12.80;8.07;;;;;;;15.05;77.67;99495.53;5013696;28;20030;-66
2022/06/05 02:21:33;;;;;;;10.93;7.85;;;;;;;15.39;77.28;99535.81;5013563;28;20077;-66
2022/06/05 02:23:59;;;;;;;15.13;8.85;;;;;;;15.41;77.57;99533.13;5013447;28;20438;-65
2022/06/05 02:26:27;;;;;;;16.98;9.57;;;;;;;15.07;77.91;99474.59;5013550;28;20042;-65
2022/06/05 02:28:52;;;;;;;17.30;9.05;;;;;;;15.45;77.68;99534.66;5013393;28;20395;-66
2022/06/05 02:31:41;;;;;;;18.73;9.13;;;;;;;15.43;77.96;99542.56;5013333;28;20022;-65
2022/06/05 02:34:12;;;;;;;14.35;8.77;;;;;;;15.35;76.59;99529.03;5013424;28;20048;-66
2022/06/05 02:37:00;;;;;;;14.88;8.88;;;;;;;15.31;77.75;99530.06;5013267;28;20037;-66
2022/06/05 02:39:54;;;;;;;17.88;8.73;;;;;;;15.09;76.46;99481.44;5013173;28;20030;-66
2022/06/05 02:42:36;;;;;;;13.35;8.93;;;;;;;15.13;76.99;99475.16;5012868;28;20411;-67
2022/06/05 02:45:13;;;;;;;;;;;;;;;15.59;77.26;99531.44;5014223;28;20104;-67
2022/06/05 02:48:07;;;;;;;12.73;8.57;;;;;;;15.33;76.44;99476.91;5013954;28;20371;-67
2022/06/05 02:50:52;;;;;;;13.65;9.32;;;;;;;15.62;75.85;99510.44;5013459;28;20014;-68
2022/06/05 02:53:18;;;;;;;16.80;9.60;;;;;;;15.78;75.91;99523.66;5013813;28;20062;-67
2022/06/05 02:55:44;;;;;;;15.93;9.45;;;;;;;15.92;75.38;99526.50;5014013;28;20057;-67
2022/06/05 02:58:11;;;;;;;14.20;9.43;;;;;;;15.93;74.88;99520.34;5013747;28;20061;-66
2022/06/05 03:00:38;;;;;;;18.23;9.23;;;;;;;16.02;75.27;99519.09;5005884;28;20081;-67
2022/06/05 03:05:49;;;;;;;24.20;10.23;;;;;;;16.15;74.93;99508.91;5005041;28;20048;-66
2022/06/05 03:08:17;;;;;;;21.25;9.77;;;;;;;16.24;74.60;99511.06;5002540;28;20026;-66
2022/06/05 03:10:44;;;;;;;22.35;10.05;;;;;;;16.38;74.72;99508.66;5012466;28;20030;-66
2022/06/05 03:13:11;;;;;;;21.85;10.15;;;;;;;16.53;73.89;99508.81;5013468;28;20395;-66
2022/06/05 03:15:38;;;;;;;16.73;9.38;;;;;;;16.63;73.84;99509.22;5013439;28;20026;-67
2022/06/05 03:18:04;;;;;;;19.35;10.32;;;;;;;16.72;73.50;99507.00;5013364;28;20026;-66
2022/06/05 03:20:30;;;;;;;15.32;9.75;;;;;;;16.86;70.96;99502.81;5011056;28;20065;-67
2022/06/05 03:22:56;;;;;;;22.15;10.00;;;;;;;17.00;71.44;99496.94;5007627;28;20109;-67
2022/06/05 03:25:24;;;;;;;16.58;9.20;;;;;;;16.99;70.29;99448.19;5013312;28;20053;-68
2022/06/05 03:27:50;;;;;;;23.35;11.02;;;;;;;17.56;65.54;99487.91;5013713;28;20034;-68
2022/06/05 03:30:17;;;;;;;18.08;10.20;;;;;;;17.86;66.34;99495.03;5013084;28;20484;-68
2022/06/05 03:32:43;;;;;;;23.75;11.35;;;;;;;17.86;64.00;99484.53;5013109;28;20475;-68
2022/06/05 03:35:10;;;;;;;20.88;10.82;;;;;;;17.99;64.50;99486.53;5012968;28;20026;-67
2022/06/05 03:37:36;;;;;;;16.42;11.05;;;;;;;18.03;64.01;99475.78;5012949;28;20028;-68
2022/06/05 03:40:09;;;;;;;22.63;12.32;;;;;;;17.92;64.14;99478.97;5013102;28;20031;-67
2022/06/05 03:42:35;;;;;;;21.80;10.27;;;;;;;18.06;64.62;99478.22;5012886;28;20558;-67
2022/06/05 03:45:00;;;;;;;19.65;10.02;;;;;;;18.12;63.22;99474.41;5012457;28;20104;-67
2022/06/05 03:47:26;;;;;;;21.40;10.23;;;;;;;18.25;63.89;99477.19;5012940;28;20026;-68
2022/06/05 03:49:52;;;;;;;14.18;8.55;;;;;;;18.22;61.79;99472.13;5012730;28;20037;-68
2022/06/05 03:52:17;;;;;;;21.30;9.23;;;;;;;18.32;61.92;99470.66;5013082;28;20044;-67
2022/06/05 03:54:43;;;;;;;16.35;9.05;;;;;;;18.42;62.11;99470.97;5012476;28;20076;-65
2022/06/05 03:57:08;;;;;;;13.20;7.78;;;;;;;18.46;62.00;99483.81;5012623;28;20040;-66
2022/06/05 03:59:36;;;;;;;13.38;8.60;;;;;;;18.18;63.26;99418.19;5012980;28;20497;-67
2022/06/05 04:02:04;;;;;;;13.52;7.78;;;;;;;18.34;61.84;99460.09;4994194;28;20368;-65
2022/06/05 04:04:30;;;;;;;9.65;5.85;;;;;;;18.31;61.67;99462.88;5012724;28;20064;-65
2022/06/05 04:06:57;;;;;;;10.85;7.05;;;;;;;18.32;62.99;99468.03;5012493;28;20410;-65
2022/06/05 04:09:23;;;;;;;12.63;6.35;;;;;;;18.27;62.52;99459.59;5012537;28;20034;-66
2022/06/05 04:11:49;;;;;;;9.82;5.30;;;;;;;18.27;61.85;99454.34;5012252;28;20171;-66
2022/06/05 04:14:14;;;;;;;11.52;5.38;;;;;;;18.27;60.72;99454.34;5012035;28;20096;-66
2022/06/05 04:16:42;;;;;;;12.25;6.35;;;;;;;18.26;61.81;99448.25;5012328;28;20030;-66
2022/06/05 04:19:08;;;;;;;13.55;5.93;;;;;;;18.19;61.68;99441.69;5012523;28;20507;-67
2022/06/05 04:21:36;;;;;;;11.23;4.50;;;;;;;17.96;60.09;99403.69;5012568;28;20038;-68
2022/06/05 04:24:04;;;;;;;8.25;5.25;;;;;;;18.26;61.81;99450.06;5012461;28;20034;-66
2022/06/05 04:26:33;;;;;;;7.00;4.50;;;;;;;18.26;61.64;99450.88;5012277;28;20018;-66
2022/06/05 04:28:59;;;;;;;9.05;4.78;;;;;;;18.28;62.19;99453.41;5011209;28;20041;-66
2022/06/05 04:31:30;;;;;;;8.65;4.53;;;;;;;18.35;60.41;99465.25;5011097;28;20049;-67
2022/06/05 04:33:59;;;;;;;8.85;4.75;;;;;;;18.17;60.46;99406.00;5012111;28;20030;-67
2022/06/05 04:36:25;;;;;;;8.63;4.20;;;;;;;18.58;60.09;99453.44;5008280;28;20022;-67
2022/06/05 04:38:51;;;;;;;9.05;4.97;;;;;;;18.59;60.09;99464.75;5011434;28;20128;-68
2022/06/05 04:41:20;;;;;;;12.85;6.13;;;;;;;18.56;58.75;99452.66;5011999;28;20032;-67
2022/06/05 04:43:49;;;;;;;11.20;6.00;;;;;;;18.58;58.64;99458.69;5011239;28;20137;-66
2022/06/05 04:46:17;;;;;;;11.10;6.03;;;;;;;18.79;59.37;99455.72;5003207;28;20117;-66
2022/06/05 04:48:43;;;;;;;10.13;6.38;;;;;;;18.87;58.43;99468.41;5012284;28;20071;-67
2022/06/05 04:51:10;;;;;;;10.05;5.70;;;;;;;18.89;57.37;99472.63;5011754;28;20104;-67
2022/06/05 04:53:36;;;;;;;9.38;5.80;;;;;;;18.80;57.78;99484.50;5011959;28;20041;-66
2022/06/05 04:56:07;;;;;;;13.13;6.22;;;;;;;18.68;57.60;99487.00;5012018;28;20753;-66
2022/06/05 04:58:33;;;;;;;12.97;6.10;;;;;;;18.45;58.27;99490.03;5010167;28;20407;-67
2022/06/05 05:00:59;;;;;;;11.88;5.80;;;;;;;18.32;58.81;99493.44;5011894;28;20506;-66
2022/06/05 05:03:24;;;;;;;12.30;6.93;;;;;;;18.21;59.03;99491.41;5011747;28;20046;-66
2022/06/05 05:05:50;;;;;;;11.02;7.43;;;;;;;18.24;59.23;99497.31;5011101;28;20046;-66
2022/06/05 05:08:15;;;;;;;11.40;8.45;;;;;;;18.17;59.57;99489.88;5011045;28;20033;-67
2022/06/05 05:10:42;;;;;;;11.95;7.85;;;;;;;18.01;59.87;99482.88;5008552;28;20026;-67
2022/06/05 05:13:08;;;;;;;12.48;8.05;;;;;;;17.80;59.76;99484.03;5010759;28;20518;-65
2022/06/05 05:15:34;;;;;;;12.35;8.10;;;;;;;17.65;60.46;99483.09;5012014;28;20037;-67
2022/06/05 05:18:00;;;;;;;13.30;7.57;;;;;;;17.72;60.82;99489.69;5011889;28;20030;-68
2022/06/05 05:20:26;;;;;;;10.93;7.13;;;;;;;17.43;61.13;99518.28;5011759;28;20029;-66
2022/06/05 05:22:51;;;;;;;12.50;7.15;;;;;;;17.48;61.19;99536.38;5011723;28;20091;-67
2022/06/05 05:25:17;;;;;;;13.40;6.55;;;;;;;17.31;61.88;99555.56;5011403;28;20552;-67
2022/06/05 05:27:43;;;;;;;10.25;6.03;;;;;;;17.14;62.54;99553.81;5013652;28;20040;-67
2022/06/05 05:30:09;;;;;;;8.15;6.10;;;;;;;17.08;63.54;99547.94;5029747;28;20056;-66
2022/06/05 05:32:35;;;;;;;10.55;5.43;;;;;;;16.95;65.16;99565.19;5014977;28;20034;-67
2022/06/05 05:35:01;;;;;;;7.95;5.30;;;;;;;16.43;66.88;99572.94;5015088;28;20033;-66
2022/06/05 05:37:28;;;;;;;5.13;4.63;;;;;;;16.39;67.92;99567.84;5015464;28;20040;-66
2022/06/05 05:42:38;;;;;;;6.93;4.70;;;;;;;16.17;71.39;99560.16;5014233;28;20045;-66
2022/06/05 05:45:05;;;;;;;8.38;4.35;;;;;;;15.90;73.72;99562.28;5014885;28;20072;-65
2022/06/05 05:47:32;;;;;;;7.47;4.85;;;;;;;15.97;73.93;99565.47;5014927;28;20116;-64
2022/06/05 05:50:01;;;;;;;5.78;4.15;;;;;;;15.62;75.14;99524.34;5015095;28;20064;-65
2022/06/05 05:52:28;;;;;;;14.35;5.10;;;;;;;15.79;76.41;99585.41;5014972;28;20026;-64
2022/06/05 05:54:54;;;;;;;5.50;4.72;;;;;;;15.79;75.52;99578.47;5015119;28;20081;-66
2022/06/05 05:57:21;;;;;;;6.95;4.55;;;;;;;15.70;76.01;99564.03;5014760;28;20062;-65
2022/06/05 05:59:47;;;;;;;7.35;5.28;;;;;;;15.69;78.39;99585.81;5014108;28;20475;-64
2022/06/05 06:02:16;;;;;;;6.90;5.20;;;;;;;15.35;77.80;99521.19;5014171;28;20033;-63
2022/06/05 06:04:43;;;;;;;6.32;4.93;;;;;;;15.52;79.03;99572.66;5014649;28;20046;-63
2022/06/05 06:07:09;;;;;;;5.32;4.63;;;;;;;15.49;77.67;99549.28;5013645;28;20038;-63
2022/06/05 06:09:36;;;;;;;8.60;4.60;;;;;;;15.50;78.11;99545.75;5014731;28;20389;-63
2022/06/05 06:12:02;;;;;;;6.30;5.00;;;;;;;15.38;79.71;99528.03;5014670;28;20076;-64
2022/06/05 06:14:28;;;;;;;9.65;5.13;;;;;;;15.42;79.46;99513.94;5012069;28;20106;-63
2022/06/05 06:16:53;;;;;;;5.80;5.25;;;;;;;15.42;79.23;99508.72;5010445;28;20026;-63
2022/06/05 06:19:19;;;;;;;6.82;4.82;;;;;;;15.26;80.49;99518.97;5011644;28;20024;-63
2022/06/05 06:21:45;;;;;;;7.25;5.00;;;;;;;15.26;81.50;99539.84;5013192;28;20033;-63
2022/06/05 06:24:12;;;;;;;8.10;5.10;;;;;;;15.21;82.45;99510.53;5012450;28;20069;-63
2022/06/05 06:26:38;;;;;;;8.25;5.13;;;;;;;15.16;81.33;99513.31;5012394;28;20042;-63
2022/06/05 06:29:04;;;;;;;6.03;4.97;;;;;;;15.33;81.71;99513.44;5012291;28;20028;-62
2022/06/05 06:31:29;;;;;;;5.03;4.55;;;;;;;15.32;82.48;99513.47;5012367;28;20029;-63
2022/06/05 06:33:55;;;;;;;6.57;5.20;;;;;;;15.34;82.46;99512.50;5011922;28;20392;-63
2022/06/05 06:36:21;;;;;;;5.35;4.63;;;;;;;15.40;82.13;99507.94;5011914;28;20383;-63
2022/06/05 06:38:46;;;;;;;6.00;5.30;;;;;;;15.42;81.87;99506.97;5011811;28;20391;-63
2022/06/05 06:41:15;;;;;;;5.22;4.68;;;;;;;15.21;82.32;99459.19;5012768;28;20022;-63
2022/06/05 06:43:42;;;;;;;8.40;5.28;;;;;;;15.57;81.95;99505.41;5006138;28;20114;-63
2022/06/05 06:46:09;;;;;;;6.35;4.70;;;;;;;15.70;81.21;99503.97;5012337;28;20054;-62
2022/06/05 06:48:35;;;;;;;6.97;4.60;;;;;;;15.83;80.58;99506.03;5013877;28;20022;-63
2022/06/05 06:51:01;;;;;;;5.45;4.78;;;;;;;16.11;80.35;99500.38;5013932;28;20487;-63
2022/06/05 06:53:29;;;;;;;5.63;5.10;;;;;;;16.27;80.86;99512.69;5013451;28;20105;-63
2022/06/05 06:55:56;;;;;;;7.10;5.53;;;;;;;16.33;79.99;99505.44;5011374;28;20037;-63
2022/06/05 06:58:21;;;;;;;6.65;5.30;;;;;;;16.35;80.44;99511.41;5012257;28;20037;-63
2022/06/05 07:00:47;;;;;;;5.55;4.72;;;;;;;16.27;78.30;99516.16;5012420;28;20038;-63
2022/06/05 07:03:13;;;;;;;5.43;4.50;;;;;;;16.29;78.43;99511.72;5012352;28;20026;-64
2022/06/05 07:05:40;;;;;;;5.07;4.57;;;;;;;16.31;79.60;99514.25;5011222;28;20026;-63
2022/06/05 07:08:07;;;;;;;5.03;4.50;;;;;;;16.49;77.55;99515.13;5012194;28;20431;-63
2022/06/05 07:10:33;;;;;;;5.57;4.93;;;;;;;16.50;78.82;99508.97;5009215;28;20076;-63
2022/06/05 07:12:58;;;;;;;6.15;4.40;;;;;;;16.70;77.09;99513.22;5012519;28;20041;-64
2022/06/05 07:15:24;;;;;;;4.50;4.10;;;;;;;16.60;76.58;99510.22;5009726;28;20026;-63
2022/06/05 07:17:49;;;;;;;7.10;4.30;;;;;;;16.50;76.88;99514.19;5007596;28;20088;-63
2022/06/05 07:20:15;;;;;;;5.28;4.07;;;;;;;16.50;77.31;99509.84;5012011;28;20018;-64
2022/06/05 07:22:41;;;;;;;7.32;4.45;;;;;;;16.51;75.92;99505.44;5011780;28;20742;-64
2022/06/05 07:25:07;;;;;;;5.22;3.95;;;;;;;16.63;77.21;99511.81;5012026;28;20022;-63
2022/06/05 07:27:33;;;;;;;4.00;3.63;;;;;;;16.58;76.69;99512.06;5009216;28;20080;-63
2022/06/05 07:29:59;;;;;;;5.43;4.32;;;;;;;16.57;77.29;99523.44;5009128;28;20034;-64
2022/06/05 07:32:25;;;;;;;4.53;4.13;;;;;;;16.49;76.74;99515.13;5009090;28;20025;-64
2022/06/05 07:34:50;;;;;;;4.50;4.10;;;;;;;16.53;76.19;99516.66;5011548;28;20335;-64
2022/06/05 07:37:16;;;;;;;4.85;4.35;;;;;;;16.45;75.62;99524.88;5011774;28;20030;-63
2022/06/05 07:39:43;;;;;;;10.70;4.65;;;;;;;16.72;75.25;99517.47;5011311;28;20026;-64
2022/06/05 07:42:09;;;;;;;5.68;4.60;;;;;;;16.78;75.12;99518.09;5010326;28;20026;-64
2022/06/05 07:44:36;;;;;;;4.78;4.18;;;;;;;16.70;74.11;99516.69;5009100;28;20030;-64
2022/06/05 07:47:07;;;;;;;4.57;4.07;;;;;;;16.47;75.00;99515.19;5011266;28;20036;-64
2022/06/05 07:49:34;;;;;;;4.20;3.90;;;;;;;16.64;74.48;99513.53;5010821;28;20066;-64
2022/06/05 07:54:45;;;;;;;4.95;4.25;;;;;;;16.94;76.09;99513.78;5008496;28;20394;-64
2022/06/05 07:57:13;;;;;;;6.00;4.63;;;;;;;16.79;75.93;99459.59;5011530;28;20057;-64
2022/06/05 07:59:45;;;;;;;8.40;6.03;;;;;;;17.10;79.21;99508.63;5005602;28;20395;-64
2022/06/05 08:02:38;;;;;;;6.53;4.63;;;;;;;17.31;75.53;99500.59;5008368;28;20030;-64
2022/06/05 08:05:05;;;;;;;6.05;4.38;;;;;;;17.30;74.12;99494.53;5008813;28;20040;-65
2022/06/05 08:07:33;;;;;;;5.43;4.93;;;;;;;17.55;73.61;99519.41;5011069;28;20459;-64
2022/06/05 08:10:00;;;;;;;7.45;4.72;;;;;;;17.56;73.10;99510.63;5011445;28;20521;-64
2022/06/05 08:12:29;;;;;;;5.63;4.00;;;;;;;17.61;69.54;99508.59;5008504;28;20471;-65
2022/06/05 08:14:56;;;;;;;5.10;3.72;;;;;;;17.68;69.47;99511.75;5010778;28;20030;-64
2022/06/05 08:17:27;;;;;;;4.68;4.28;;;;;;;17.74;70.40;99509.63;5009938;28;20061;-65
2022/06/05 08:19:53;;;;;;;4.35;3.78;;;;;;;17.57;68.15;99491.34;5009603;28;20037;-65
2022/06/05 08:22:21;;;;;;;4.40;4.05;;;;;;;17.65;70.75;99493.56;5008474;28;20550;-66
2022/06/05 08:24:47;;;;;;;4.28;3.75;;;;;;;17.63;69.93;99504.13;5008135;28;20026;-64
2022/06/05 08:27:18;;;;;;;3.67;3.38;;;;;;;17.40;68.75;99450.34;5011649;28;20454;-65
2022/06/05 08:29:44;;;;;;;5.20;3.78;;;;;;;17.79;70.92;99501.53;5009835;28;20080;-64
2022/06/05 08:32:13;;;;;;;5.47;3.75;;;;;;;17.83;68.65;99508.28;5012257;28;20026;-64
2022/06/05 08:34:39;;;;;;;3.95;3.65;;;;;;;17.56;68.62;99508.00;5011882;28;20471;-65
2022/06/05 08:42:43;;;;;;;4.38;3.58;;;;;;;17.26;71.36;99503.47;5005860;28;20061;-64
2022/06/05 08:45:38;;;;;;;3.83;3.47;;;;;;;16.96;70.42;99511.09;5008868;28;20022;-63
2022/06/05 08:48:10;;;;;;;5.20;3.70;;;;;;;16.70;70.63;99479.22;5007925;28;20475;-63
2022/06/05 08:50:48;;;;;;;4.20;3.45;;;;;;;16.98;71.79;99525.78;4992515;28;20034;-65
2022/06/05 08:53:40;;;;;;;5.22;3.40;;;;;;;16.80;73.83;99518.84;5004762;28;20109;-66
2022/06/05 08:56:10;;;;;;;6.93;3.50;;;;;;;16.86;73.61;99527.25;5003398;28;20027;-64
2022/06/05 08:58:53;;;;;;;4.55;3.35;;;;;;;16.97;74.06;99529.31;5011280;28;20598;-65
2022/06/05 09:01:57;;;;;;;3.00;2.63;;;;;;;16.85;73.72;99525.53;5022884;28;20082;-65
2022/06/05 09:04:44;;;;;;;4.38;3.30;;;;;;;16.86;74.20;99524.63;5020760;28;20490;-65
2022/06/05 09:07:14;;;;;;;3.85;3.28;;;;;;;16.90;73.70;99549.75;5024454;28;20467;-64
2022/06/05 09:09:47;;;;;;;3.97;3.15;;;;;;;17.00;74.72;99528.34;5022074;28;20036;-65
2022/06/05 09:12:29;;;;;;;5.82;4.20;;;;;;;16.66;74.03;99478.53;5024018;28;20092;-64
2022/06/05 09:15:14;;;;;;;4.60;4.05;;;;;;;16.83;74.09;99519.56;5005500;28;20044;-64
2022/06/05 09:17:55;;;;;;;8.48;4.90;;;;;;;16.83;73.88;99531.75;5004322;28;20083;-65
2022/06/05 09:20:28;;;;;;;6.40;4.68;;;;;;;16.97;74.05;99531.94;4994949;28;20146;-66
2022/06/05 09:22:59;;;;;;;4.93;4.32;;;;;;;16.56;72.68;99480.75;4998073;28;20033;-64
2022/06/05 09:25:59;;;;;;;6.93;4.65;;;;;;;16.91;72.82;99524.41;5014718;28;20033;-66
2022/06/05 09:28:35;;;;;;;6.97;4.40;;;;;;;16.83;73.14;99523.91;5009235;28;20042;-65
2022/06/05 09:31:25;;;;;;;6.68;4.40;;;;;;;16.76;74.90;99535.59;4995254;28;20023;-65
2022/06/05 09:33:55;;;;;;;7.25;3.45;;;;;;;16.84;74.40;99536.06;5013452;28;20382;-65
2022/06/05 09:36:24;;;;;;;6.80;4.25;;;;;;;16.66;72.71;99472.44;5013099;28;20026;-65
2022/06/05 09:39:26;;;;;;;4.97;3.70;;;;;;;16.82;72.23;99485.63;5012981;28;20028;-66
2022/06/05 09:42:00;;;;;;;5.22;3.35;;;;;;;16.93;72.63;99525.19;4961812;28;20050;-67
2022/06/05 09:44:26;;;;;;;6.60;3.30;;;;;;;16.98;70.93;99527.56;5000593;28;20550;-65
2022/06/05 09:47:12;;;;;;;3.08;2.83;;;;;;;16.92;69.54;99518.28;5013927;28;20029;-66
2022/06/05 09:49:43;;;;;;;4.43;2.67;;;;;;;16.94;69.68;99528.66;5014202;28;20372;-65
2022/06/05 09:52:15;;;;;;;3.55;2.95;;;;;;;16.71;69.51;99473.91;5014160;28;20030;-67
2022/06/05 09:54:47;;;;;;;7.85;2.95;;;;;;;16.98;71.88;99481.31;5009793;28;20495;-66
2022/06/05 10:00:24;;;;;;;3.40;3.10;;;;;;;17.35;69.97;99471.56;5013961;28;20493;-67
2022/06/05 10:02:50;;;;;;;10.70;8.38;;;;;;;17.55;69.25;99522.84;5014060;28;20361;-66
2022/06/05 10:05:27;;;;;;;4.80;2.83;;;;;;;17.64;69.26;99491.88;5001803;28;20090;-65
2022/06/05 10:08:04;;;;;;;3.75;2.65;;;;;;;17.68;68.77;99536.16;4996778;28;20767;-68
2022/06/05 10:10:42;;;;;;;4.97;2.88;;;;;;;17.00;67.24;99447.22;5014064;28;20022;-64
2022/06/05 10:13:19;;;;;;;4.18;2.40;;;;;;;17.22;66.84;99460.03;5011792;28;20033;-66
2022/06/05 10:16:05;;;;;;;2.53;2.33;;;;;;;17.30;67.32;99457.88;5012618;28;20109;-65
2022/06/05 10:18:39;;;;;;;5.70;3.60;;;;;;;17.66;66.71;99509.19;5013477;28;20093;-65
2022/06/05 10:21:11;;;;;;;3.35;2.45;;;;;;;17.60;67.62;99492.03;5010334;28;20037;-65
2022/06/05 10:23:56;;;;;;;2.95;2.60;;;;;;;17.42;66.81;99456.38;5012562;28;20049;-65
2022/06/05 10:26:31;;;;;;;4.60;3.25;;;;;;;17.60;68.48;99491.22;5012591;28;20073;-66
2022/06/05 10:29:17;;;;;;;3.22;2.75;;;;;;;17.66;67.23;99506.59;4996745;28;20055;-66
2022/06/05 10:32:02;;;;;;;3.28;2.53;;;;;;;17.65;66.09;99514.53;5024516;28;20030;-68
2022/06/05 10:34:30;;;;;;;2.55;2.35;;;;;;;17.80;66.02;99503.22;5010568;28;20029;-63
2022/06/05 10:37:02;;;;;;;3.03;2.10;;;;;;;17.74;65.13;99504.41;5011076;28;20042;-65
2022/06/05 10:39:50;;;;;;;5.72;2.25;;;;;;;17.83;63.75;99507.44;5013299;28;20519;-64
2022/06/05 10:42:34;;;;;;;2.03;1.83;;;;;;;17.78;62.97;99499.81;5011891;28;20034;-65
2022/06/05 10:45:12;;;;;;;1.85;1.73;;;;;;;17.77;62.57;99478.03;5011688;28;20022;-65
2022/06/05 10:47:56;;;;;;;3.17;2.08;;;;;;;17.87;63.56;99499.34;5012562;28;20491;-66
2022/06/05 10:50:45;;;;;;;2.00;1.40;;;;;;;17.93;61.53;99490.31;5013100;28;20129;-66
2022/06/05 10:53:32;;;;;;;1.40;1.30;;;;;;;17.81;60.72;99452.50;5012889;28;20026;-65
2022/06/05 10:56:28;;;;;;;3.40;1.80;;;;;;;18.31;61.53;99487.31;4996104;28;20034;-68
2022/06/05 10:59:05;;;;;;;2.08;1.50;;;;;;;18.10;60.80;99469.25;5010853;28;20188;-66
2022/06/05 11:02:04;;;;;;;1.88;1.50;;;;;;;18.23;60.43;99500.03;5012853;28;20025;-66
2022/06/05 11:04:38;;;;;;;3.28;1.70;;;;;;;17.69;60.50;99424.38;5008172;28;20050;-67
2022/06/05 11:07:34;;;;;;;5.70;2.03;;;;;;;18.13;61.99;99490.97;5005073;28;20049;-66
2022/06/05 11:13:45;;;;;;;2.88;1.92;;;;;;;18.09;63.61;99438.72;4993617;28;20070;-66
2022/06/05 11:16:32;;;;;;;2.58;1.90;;;;;;;18.58;60.54;99492.78;5005188;28;20487;-64
2022/06/05 11:19:11;;;;;;;2.30;2.10;;;;;;;18.76;62.14;99496.09;5008992;28;20038;-65
2022/06/05 11:21:41;;;;;;;4.88;2.05;;;;;;;18.75;61.35;99483.06;5012247;28;20101;-65
2022/06/05 11:24:15;;;;;;;4.00;1.85;;;;;;;18.60;60.42;99466.47;5005908;28;20034;-66
2022/06/05 11:26:52;;;;;;;2.95;1.75;;;;;;;18.73;60.02;99491.03;5010502;28;20412;-65
2022/06/05 11:29:20;;;;;;;2.53;1.58;;;;;;;18.50;60.79;99494.13;5012613;28;20026;-64
2022/06/05 11:31:56;;;;;;;2.70;1.50;;;;;;;18.43;60.56;99493.66;5012484;28;20026;-66
2022/06/05 11:34:42;;;;;;;3.72;1.63;;;;;;;18.31;63.05;99499.59;5013303;28;20049;-65
2022/06/05 11:37:20;;;;;;;2.17;1.92;;;;;;;18.29;65.13;99500.50;4994169;28;20098;-64
2022/06/05 11:39:56;;;;;;;2.10;1.65;;;;;;;18.05;63.56;99492.25;4996509;28;20054;-65
2022/06/05 11:42:37;;;;;;;1.95;1.70;;;;;;;18.01;64.06;99506.44;5007434;28;20379;-65
2022/06/05 11:45:31;;;;;;;1.83;1.65;;;;;;;18.09;65.06;99499.00;5012036;28;20033;-63
2022/06/05 11:48:17;;;;;;;2.35;1.80;;;;;;;17.88;65.33;99450.41;5011148;28;20032;-64
2022/06/05 11:50:57;;;;;;;1.98;1.83;;;;;;;17.86;66.32;99447.03;5012539;28;20058;-63
2022/06/05 11:53:28;;;;;;;3.22;2.33;;;;;;;18.11;64.27;99443.88;5001535;28;20487;-65
2022/06/05 11:56:12;;;;;;;4.95;2.28;;;;;;;18.24;62.74;99475.50;5009524;28;20372;-64
2022/06/05 11:59:09;;;;;;;4.25;2.30;;;;;;;18.33;63.32;99484.59;5017018;28;20429;-64
2022/06/05 12:01:43;;;;;;;3.30;2.50;;;;;;;18.43;63.48;99491.88;5011730;28;20061;-64
2022/06/05 12:04:42;;;;;;;4.07;2.42;;;;;;;18.30;61.62;99462.06;5008930;28;20038;-63
2022/06/05 12:07:13;;;;;;;3.58;2.40;;;;;;;18.34;60.70;99462.72;5008725;28;20418;-64
2022/06/05 12:09:56;;;;;;;4.27;2.60;;;;;;;18.54;61.18;99485.16;5010197;28;20064;-64
2022/06/05 12:12:41;;;;;;;2.72;2.35;;;;;;;18.76;64.36;99469.03;5009457;28;20978;-64
2022/06/05 12:15:25;;;;;;;2.22;1.98;;;;;;;18.75;61.55;99491.78;5010324;28;20037;-63